Time;durP1;ratioP1;P1;durP2;ratioP2;P2;SDS_P1;SDS_P2;PMS_P1;PMS_P2;Temp;Humidity;BMP_temperature;BMP_pressure;BME280_temperature;BME280_humidity;BME280_pressure;Samples;Min_cycle;Max_cycle;Signal;HPM_P1;HPM_P2
2023/01/12 00:00:21;;;;;;;21.23;4.50;;;;;;;;;;6105922;19;20353;-69
2023/01/12 00:02:26;;;;;;;19.60;3.42;;;;;;;;;;6105912;19;20391;-69
2023/01/12 00:04:31;;;;;;;16.92;3.00;;;;;;;;;;6107613;19;20021;-70
2023/01/12 00:06:37;;;;;;;24.15;3.92;;;;;;;;;;6108472;19;20010;-69
2023/01/12 00:08:42;;;;;;;25.70;4.50;;;;;;;;;;6075182;19;20010;-70
2023/01/12 00:10:47;;;;;;;24.60;5.25;;;;;;;;;;6107433;19;20105;-69
2023/01/12 00:12:52;;;;;;;21.73;4.47;;;;;;;;;;6106049;19;20019;-69
2023/01/12 00:14:57;;;;;;;22.02;4.55;;;;;;;;;;6108142;19;21230;-70
2023/01/12 00:17:05;;;;;;;22.38;5.28;;;;;;;;;;6104556;19;20580;-70
2023/01/12 00:19:14;;;;;;;25.42;5.75;;;;;;;;;;6109413;19;20410;-71
2023/01/12 00:21:19;;;;;;;30.00;6.07;;;;;;;;;;6103929;19;20019;-72
2023/01/12 00:23:28;;;;;;;29.95;6.55;;;;;;;;;;6105799;19;20038;-71
2023/01/12 00:25:32;;;;;;;31.20;7.57;;;;;;;;;;6106293;19;20356;-72
2023/01/12 00:27:37;;;;;;;30.65;5.82;;;;;;;;;;6107863;19;20003;-71
2023/01/12 00:29:42;;;;;;;35.20;7.35;;;;;;;;;;6104918;19;20010;-72
2023/01/12 00:31:47;;;;;;;26.80;5.93;;;;;;;;;;6107628;19;20025;-71
2023/01/12 00:33:54;;;;;;;25.42;6.63;;;;;;;;;;6108875;19;20371;-72
2023/01/12 00:35:59;;;;;;;29.10;7.25;;;;;;;;;;6106838;19;20010;-72
2023/01/12 00:38:05;;;;;;;35.78;5.93;;;;;;;;;;6105507;19;20011;-69
2023/01/12 00:40:15;;;;;;;36.80;7.18;;;;;;;;;;6107508;19;20027;-69
2023/01/12 00:46:54;;;;;;;38.97;8.02;;;;;;;;;;6107158;19;20031;-69
2023/01/12 00:49:07;;;;;;;37.45;6.30;;;;;;;;;;6108692;19;20090;-71
2023/01/12 00:51:12;;;;;;;44.53;8.33;;;;;;;;;;6107291;19;20301;-71
2023/01/12 00:53:17;;;;;;;33.63;7.05;;;;;;;;;;6104643;19;20081;-72
2023/01/12 00:55:22;;;;;;;32.95;7.18;;;;;;;;;;6104873;19;20086;-72
2023/01/12 00:57:28;;;;;;;41.47;8.98;;;;;;;;;;6103376;19;20364;-72
2023/01/12 00:59:33;;;;;;;32.47;7.50;;;;;;;;;;6106847;19;20014;-69
2023/01/12 01:01:38;;;;;;;32.08;8.10;;;;;;;;;;6103925;19;20436;-68
2023/01/12 01:03:43;;;;;;;35.25;6.60;;;;;;;;;;6103112;19;20017;-68
2023/01/12 01:05:50;;;;;;;37.47;7.75;;;;;;;;;;6104455;19;20483;-68
2023/01/12 01:07:55;;;;;;;33.63;7.45;;;;;;;;;;6104112;19;20011;-69
2023/01/12 01:10:00;;;;;;;24.38;6.85;;;;;;;;;;6101698;19;20018;-69
2023/01/12 01:12:05;;;;;;;35.33;8.05;;;;;;;;;;6104357;19;20011;-69
2023/01/12 01:14:11;;;;;;;34.92;8.15;;;;;;;;;;6106588;19;20506;-69
2023/01/12 01:16:17;;;;;;;35.45;7.75;;;;;;;;;;6104747;19;20017;-69
2023/01/12 01:18:22;;;;;;;37.33;8.68;;;;;;;;;;6105126;19;20011;-68
2023/01/12 01:20:32;;;;;;;28.05;5.75;;;;;;;;;;6101983;19;20022;-70
2023/01/12 01:22:40;;;;;;;38.03;6.55;;;;;;;;;;6103864;19;20101;-70
2023/01/12 01:24:44;;;;;;;30.88;6.85;;;;;;;;;;6103706;19;20046;-70
2023/01/12 01:26:51;;;;;;;30.10;6.20;;;;;;;;;;6105309;19;20021;-72
2023/01/12 01:28:56;;;;;;;25.52;5.45;;;;;;;;;;6104268;19;20495;-72
2023/01/12 01:31:04;;;;;;;17.63;4.75;;;;;;;;;;6105400;19;20328;-72
2023/01/12 01:33:09;;;;;;;29.20;6.55;;;;;;;;;;6104883;19;20485;-71
2023/01/12 01:35:14;;;;;;;29.13;5.57;;;;;;;;;;6103804;19;20034;-72
2023/01/12 01:37:20;;;;;;;26.05;5.40;;;;;;;;;;6103834;19;20086;-71
2023/01/12 01:39:28;;;;;;;25.42;5.30;;;;;;;;;;6105156;19;20022;-71
2023/01/12 01:41:34;;;;;;;19.42;4.45;;;;;;;;;;6104514;19;20098;-71
2023/01/12 01:43:55;;;;;;;16.58;4.03;;;;;;;;;;6103278;19;20010;-71
2023/01/12 01:46:02;;;;;;;20.27;5.35;;;;;;;;;;6103484;19;20017;-69
2023/01/12 01:48:07;;;;;;;19.40;3.60;;;;;;;;;;6104037;19;20540;-69
2023/01/12 01:50:18;;;;;;;14.13;3.67;;;;;;;;;;6104392;19;20046;-72
2023/01/12 01:52:26;;;;;;;16.80;3.40;;;;;;;;;;6102044;19;20455;-69
2023/01/12 01:54:38;;;;;;;17.13;3.90;;;;;;;;;;6102077;19;20114;-69
2023/01/12 01:56:43;;;;;;;20.85;4.13;;;;;;;;;;6100779;19;20011;-69
2023/01/12 01:58:51;;;;;;;11.15;3.25;;;;;;;;;;6102935;19;20014;-68
2023/01/12 02:00:57;;;;;;;13.68;3.45;;;;;;;;;;6102416;19;20011;-69
2023/01/12 02:03:03;;;;;;;16.55;4.70;;;;;;;;;;6103055;19;20015;-69
2023/01/12 02:05:09;;;;;;;15.98;3.50;;;;;;;;;;6103552;19;20036;-68
2023/01/12 02:07:14;;;;;;;17.40;3.38;;;;;;;;;;6102369;19;20007;-69
2023/01/12 02:09:22;;;;;;;18.50;3.28;;;;;;;;;;6100953;19;20021;-69
2023/01/12 02:16:24;;;;;;;11.52;2.83;;;;;;;;;;6100547;19;20011;-70
2023/01/12 02:18:33;;;;;;;19.27;4.00;;;;;;;;;;6102483;19;20011;-68
2023/01/12 02:21:02;;;;;;;17.77;4.97;;;;;;;;;;6098269;19;20447;-69
2023/01/12 02:23:37;;;;;;;20.05;4.22;;;;;;;;;;6103424;19;20017;-71
2023/01/12 02:25:58;;;;;;;21.02;4.50;;;;;;;;;;6099985;19;20250;-72
2023/01/12 02:28:37;;;;;;;19.52;4.28;;;;;;;;;;6104877;19;20518;-72
2023/01/12 02:31:18;;;;;;;23.40;4.75;;;;;;;;;;6101347;19;20495;-70
2023/01/12 02:33:37;;;;;;;23.10;3.65;;;;;;;;;;6104422;19;20074;-71
2023/01/12 02:35:46;;;;;;;15.45;3.65;;;;;;;;;;6105854;19;20006;-73
2023/01/12 02:37:59;;;;;;;20.23;4.10;;;;;;;;;;6097384;19;20010;-72
2023/01/12 02:40:08;;;;;;;16.93;3.90;;;;;;;;;;6106808;19;20522;-72
2023/01/12 02:44:41;;;;;;;15.57;3.63;;;;;;;;;;6104521;19;20335;-72
2023/01/12 02:46:48;;;;;;;14.48;3.60;;;;;;;;;;6104506;19;20019;-72
2023/01/12 02:48:58;;;;;;;11.82;3.25;;;;;;;;;;6105105;19;20397;-72
2023/01/12 02:51:07;;;;;;;19.88;3.95;;;;;;;;;;6103751;19;20027;-74
2023/01/12 02:53:18;;;;;;;21.30;3.88;;;;;;;;;;6103663;19;20031;-69
2023/01/12 02:55:25;;;;;;;19.85;4.38;;;;;;;;;;6105851;19;20393;-70
2023/01/12 02:57:31;;;;;;;18.80;4.05;;;;;;;;;;6105673;19;20097;-69
2023/01/12 02:59:37;;;;;;;16.08;3.42;;;;;;;;;;6105950;19;20006;-70
2023/01/12 03:01:43;;;;;;;14.23;3.58;;;;;;;;;;6106134;19;20014;-70
2023/01/12 03:03:49;;;;;;;12.60;3.42;;;;;;;;;;6103437;19;20095;-69
2023/01/12 03:06:01;;;;;;;15.63;3.65;;;;;;;;;;6103613;19;20496;-69
2023/01/12 03:08:07;;;;;;;12.93;3.30;;;;;;;;;;6103954;19;20006;-68
2023/01/12 03:10:28;;;;;;;14.63;3.55;;;;;;;;;;6098723;19;20131;-70
2023/01/12 03:12:35;;;;;;;13.85;3.42;;;;;;;;;;6102418;19;20027;-70
2023/01/12 03:14:42;;;;;;;11.15;3.50;;;;;;;;;;6102256;19;20080;-69
2023/01/12 03:16:47;;;;;;;13.50;3.75;;;;;;;;;;6100838;19;20127;-69
2023/01/12 03:18:56;;;;;;;10.77;2.88;;;;;;;;;;6100115;19;20010;-73
2023/01/12 03:21:07;;;;;;;14.30;3.75;;;;;;;;;;6100539;19;20006;-73
2023/01/12 03:23:17;;;;;;;11.90;3.13;;;;;;;;;;6101943;19;20082;-73
2023/01/12 03:25:22;;;;;;;11.15;3.83;;;;;;;;;;6099962;19;20045;-73
2023/01/12 03:27:36;;;;;;;10.07;3.03;;;;;;;;;;6101885;19;20090;-69
2023/01/12 03:29:44;;;;;;;10.15;3.90;;;;;;;;;;6102264;19;20070;-72
2023/01/12 03:31:49;;;;;;;14.68;3.63;;;;;;;;;;6103704;19;20015;-70
2023/01/12 03:33:54;;;;;;;10.40;3.47;;;;;;;;;;6107227;19;20023;-71
2023/01/12 03:36:09;;;;;;;17.80;3.65;;;;;;;;;;6107462;19;20018;-69
2023/01/12 03:38:19;;;;;;;9.82;3.67;;;;;;;;;;6107039;19;20014;-69
2023/01/12 03:40:25;;;;;;;12.98;4.20;;;;;;;;;;6108173;19;20495;-68
2023/01/12 03:42:33;;;;;;;17.75;4.32;;;;;;;;;;6107758;19;20010;-71
2023/01/12 03:44:43;;;;;;;12.45;3.83;;;;;;;;;;6103849;19;20007;-69
2023/01/12 03:46:53;;;;;;;12.02;3.53;;;;;;;;;;6109292;19;20440;-68
2023/01/12 03:49:03;;;;;;;9.52;3.72;;;;;;;;;;6106562;19;20026;-68
2023/01/12 03:51:13;;;;;;;13.98;4.72;;;;;;;;;;6107133;19;20029;-68
2023/01/12 03:53:21;;;;;;;9.90;4.40;;;;;;;;;;6104135;19;20184;-69
2023/01/12 03:55:28;;;;;;;6.65;3.67;;;;;;;;;;6106871;19;20401;-69
2023/01/12 03:57:34;;;;;;;11.13;3.85;;;;;;;;;;6106491;19;20021;-69
2023/01/12 03:59:38;;;;;;;12.93;4.32;;;;;;;;;;6100660;19;20007;-69
2023/01/12 04:01:43;;;;;;;12.02;4.63;;;;;;;;;;6106273;19;20027;-69
2023/01/12 04:03:48;;;;;;;12.27;4.60;;;;;;;;;;6107505;19;20090;-69
2023/01/12 04:05:53;;;;;;;16.55;4.93;;;;;;;;;;6107365;19;20013;-69
2023/01/12 04:08:01;;;;;;;12.68;4.40;;;;;;;;;;6108424;19;20009;-69
2023/01/12 04:10:08;;;;;;;10.95;4.75;;;;;;;;;;6107269;19;20006;-72
2023/01/12 04:12:10;;;;;;;10.70;2.97;;;;;;;;;;6105318;19;20486;-69
2023/01/12 04:14:15;;;;;;;11.38;4.13;;;;;;;;;;6107151;19;20042;-69
2023/01/12 04:16:20;;;;;;;15.93;4.25;;;;;;;;;;6107896;19;20171;-70
2023/01/12 04:18:25;;;;;;;13.70;3.80;;;;;;;;;;6105565;19;20035;-69
2023/01/12 04:20:30;;;;;;;11.52;4.10;;;;;;;;;;6104894;19;20469;-72
2023/01/12 04:22:44;;;;;;;7.50;3.78;;;;;;;;;;6105303;19;20062;-72
2023/01/12 04:24:52;;;;;;;8.63;3.53;;;;;;;;;;6103254;19;20014;-72
2023/01/12 04:26:57;;;;;;;10.85;3.38;;;;;;;;;;6106039;19;20038;-72
2023/01/12 04:29:02;;;;;;;9.35;3.33;;;;;;;;;;6105609;19;20019;-73
2023/01/12 04:31:07;;;;;;;7.00;3.70;;;;;;;;;;6106659;19;20017;-72
2023/01/12 04:33:12;;;;;;;8.10;3.35;;;;;;;;;;6107990;19;20018;-68
2023/01/12 04:35:18;;;;;;;8.70;3.50;;;;;;;;;;6108989;19;20089;-68
2023/01/12 04:37:23;;;;;;;7.30;3.25;;;;;;;;;;6103916;19;20014;-69
2023/01/12 04:39:28;;;;;;;7.10;2.75;;;;;;;;;;6104389;19;20094;-69
2023/01/12 04:41:38;;;;;;;5.78;2.50;;;;;;;;;;6106103;19;20014;-73
2023/01/12 04:43:41;;;;;;;10.77;3.45;;;;;;;;;;6101669;19;20018;-74
2023/01/12 04:45:46;;;;;;;8.10;3.03;;;;;;;;;;6106454;19;20011;-72
2023/01/12 04:47:51;;;;;;;7.20;2.90;;;;;;;;;;6106742;19;20009;-72
2023/01/12 04:49:56;;;;;;;5.75;2.70;;;;;;;;;;6105925;19;20025;-73
2023/01/12 04:52:00;;;;;;;9.35;2.92;;;;;;;;;;6105135;19;20007;-72
2023/01/12 04:54:05;;;;;;;5.65;1.85;;;;;;;;;;6103233;19;20806;-70
2023/01/12 04:56:11;;;;;;;11.90;2.67;;;;;;;;;;6105211;19;21409;-74
2023/01/12 04:58:18;;;;;;;6.47;2.65;;;;;;;;;;6103434;19;20025;-69
2023/01/12 05:00:23;;;;;;;3.13;1.90;;;;;;;;;;6104474;19;20018;-70
2023/01/12 05:02:29;;;;;;;7.63;2.45;;;;;;;;;;6105197;19;20019;-70
2023/01/12 05:04:34;;;;;;;8.30;2.40;;;;;;;;;;6105938;19;20345;-70
2023/01/12 05:06:39;;;;;;;7.15;2.55;;;;;;;;;;6107058;19;20010;-71
2023/01/12 05:11:02;;;;;;;4.85;1.73;;;;;;;;;;6104725;19;20003;-69
2023/01/12 05:13:07;;;;;;;3.78;1.85;;;;;;;;;;6105564;19;20114;-69
2023/01/12 05:15:15;;;;;;;6.28;1.83;;;;;;;;;;6103694;19;20015;-69
2023/01/12 05:17:20;;;;;;;11.90;2.58;;;;;;;;;;6104321;19;20353;-76
2023/01/12 05:19:25;;;;;;;6.03;1.83;;;;;;;;;;6102745;19;20035;-72
2023/01/12 05:21:33;;;;;;;6.47;2.10;;;;;;;;;;6101623;19;20090;-72
2023/01/12 05:23:37;;;;;;;4.78;1.90;;;;;;;;;;6106492;19;20018;-69
2023/01/12 05:25:42;;;;;;;13.23;3.00;;;;;;;;;;6109492;19;20002;-69
2023/01/12 05:27:47;;;;;;;3.10;1.70;;;;;;;;;;6107295;19;20161;-69
2023/01/12 05:29:52;;;;;;;4.57;1.90;;;;;;;;;;6108689;19;20191;-72
2023/01/12 05:31:59;;;;;;;5.40;2.20;;;;;;;;;;6108691;19;20085;-72
2023/01/12 05:34:04;;;;;;;2.47;1.60;;;;;;;;;;6107844;19;20006;-70
2023/01/12 05:36:14;;;;;;;5.93;1.95;;;;;;;;;;6106836;19;20016;-68
2023/01/12 05:38:19;;;;;;;5.25;1.90;;;;;;;;;;6103507;19;20021;-69
2023/01/12 05:40:24;;;;;;;5.05;1.80;;;;;;;;;;6102374;19;20014;-70
2023/01/12 05:44:46;;;;;;;4.38;1.83;;;;;;;;;;6101815;19;20014;-69
2023/01/12 05:46:51;;;;;;;7.00;2.20;;;;;;;;;;6105502;19;20186;-69
2023/01/12 05:48:59;;;;;;;9.70;2.70;;;;;;;;;;6105561;19;20014;-70
2023/01/12 05:51:04;;;;;;;4.07;1.92;;;;;;;;;;6106784;19;20031;-70
2023/01/12 05:53:10;;;;;;;5.30;1.67;;;;;;;;;;6101266;19;20519;-68
2023/01/12 05:55:15;;;;;;;9.70;2.50;;;;;;;;;;6103319;19;20015;-68
2023/01/12 05:57:20;;;;;;;7.63;2.85;;;;;;;;;;6106582;19;20622;-68
2023/01/12 05:59:28;;;;;;;6.78;2.22;;;;;;;;;;6104040;19;20487;-69
2023/01/12 06:01:34;;;;;;;10.48;2.35;;;;;;;;;;6104505;19;20439;-70
2023/01/12 06:03:39;;;;;;;10.18;3.00;;;;;;;;;;6107679;19;20055;-71
2023/01/12 06:05:54;;;;;;;10.30;2.80;;;;;;;;;;6107348;19;20018;-70
2023/01/12 06:08:01;;;;;;;9.05;2.50;;;;;;;;;;6106588;19;20033;-70
2023/01/12 06:10:07;;;;;;;9.63;3.25;;;;;;;;;;6106460;19;20010;-70
2023/01/12 06:14:36;;;;;;;12.30;3.00;;;;;;;;;;6105051;19;20062;-70
2023/01/12 06:16:42;;;;;;;11.32;3.10;;;;;;;;;;6102158;19;20014;-69
2023/01/12 06:18:47;;;;;;;13.70;3.38;;;;;;;;;;6103874;19;20015;-70
2023/01/12 06:20:55;;;;;;;11.50;2.90;;;;;;;;;;6098922;19;20018;-68
2023/01/12 06:23:03;;;;;;;10.32;2.65;;;;;;;;;;6103128;19;20026;-69
2023/01/12 06:25:09;;;;;;;20.45;3.63;;;;;;;;;;6101929;19;20339;-69
2023/01/12 06:27:14;;;;;;;14.73;3.63;;;;;;;;;;6103364;19;20018;-70
2023/01/12 06:29:19;;;;;;;17.70;4.18;;;;;;;;;;6105567;19;20113;-69
2023/01/12 06:31:24;;;;;;;18.02;4.88;;;;;;;;;;6103397;19;20023;-69
2023/01/12 06:33:30;;;;;;;15.38;4.30;;;;;;;;;;6104609;19;20086;-70
2023/01/12 06:35:34;;;;;;;15.70;3.58;;;;;;;;;;6103289;19;20010;-69
2023/01/12 06:37:42;;;;;;;23.65;4.38;;;;;;;;;;6100404;19;20002;-70
2023/01/12 06:39:46;;;;;;;17.27;3.28;;;;;;;;;;6100993;19;20006;-70
2023/01/12 06:44:08;;;;;;;13.95;3.05;;;;;;;;;;6100830;19;20517;-71
2023/01/12 06:46:13;;;;;;;13.48;3.22;;;;;;;;;;6103261;19;20010;-70
2023/01/12 06:48:20;;;;;;;24.80;4.75;;;;;;;;;;6103679;19;20024;-68
2023/01/12 06:50:25;;;;;;;22.85;3.75;;;;;;;;;;6103452;19;20017;-69
2023/01/12 06:52:30;;;;;;;22.15;4.20;;;;;;;;;;6099616;19;20343;-69
2023/01/12 06:54:38;;;;;;;20.98;3.83;;;;;;;;;;6102649;19;20019;-69
2023/01/12 06:56:43;;;;;;;16.30;4.82;;;;;;;;;;6099495;19;20360;-68
2023/01/12 06:58:47;;;;;;;19.10;4.55;;;;;;;;;;6099283;19;20477;-69
2023/01/12 07:00:52;;;;;;;22.27;4.45;;;;;;;;;;6099191;19;20019;-68
2023/01/12 07:02:58;;;;;;;23.00;4.50;;;;;;;;;;6103797;19;20037;-68
2023/01/12 07:05:03;;;;;;;17.00;3.45;;;;;;;;;;6102769;19;20349;-70
2023/01/12 07:07:08;;;;;;;25.95;4.30;;;;;;;;;;6100283;19;20038;-68
2023/01/12 07:09:13;;;;;;;22.02;4.15;;;;;;;;;;6102320;19;20473;-68
2023/01/12 07:11:20;;;;;;;13.38;3.83;;;;;;;;;;6103091;19;20038;-68
2023/01/12 07:13:25;;;;;;;20.30;3.67;;;;;;;;;;6104673;19;20062;-68
2023/01/12 07:15:30;;;;;;;21.30;4.20;;;;;;;;;;6105074;19;20011;-69
2023/01/12 07:17:35;;;;;;;18.50;5.78;;;;;;;;;;6102166;19;20013;-70
2023/01/12 07:19:40;;;;;;;17.02;4.32;;;;;;;;;;6105041;19;20013;-69
2023/01/12 07:21:45;;;;;;;17.73;3.50;;;;;;;;;;6102166;19;20074;-68
2023/01/12 07:23:50;;;;;;;18.15;4.30;;;;;;;;;;6102640;19;20310;-70
2023/01/12 07:25:55;;;;;;;18.42;3.47;;;;;;;;;;6103322;19;20478;-70
2023/01/12 07:28:02;;;;;;;18.50;3.47;;;;;;;;;;6103969;19;20020;-69
2023/01/12 07:30:11;;;;;;;22.77;4.38;;;;;;;;;;6105438;19;20021;-69
2023/01/12 07:32:16;;;;;;;16.88;5.20;;;;;;;;;;6102427;19;20086;-70
2023/01/12 07:34:21;;;;;;;19.98;4.22;;;;;;;;;;6105015;19;20025;-69
2023/01/12 07:36:26;;;;;;;22.85;5.03;;;;;;;;;;6102704;19;20087;-69
2023/01/12 07:38:32;;;;;;;24.08;4.30;;;;;;;;;;6104417;19;20031;-69
2023/01/12 07:40:37;;;;;;;17.27;4.90;;;;;;;;;;6102130;19;20390;-68
2023/01/12 07:42:42;;;;;;;21.63;4.80;;;;;;;;;;6099473;19;20420;-70
2023/01/12 07:44:50;;;;;;;23.63;3.35;;;;;;;;;;6100971;19;20218;-68
2023/01/12 07:46:54;;;;;;;22.80;4.57;;;;;;;;;;6102880;19;20478;-68
2023/01/12 07:48:59;;;;;;;21.88;4.60;;;;;;;;;;6103860;19;20533;-68
2023/01/12 07:51:04;;;;;;;27.05;5.25;;;;;;;;;;6103769;19;20378;-68
2023/01/12 07:53:09;;;;;;;19.50;3.95;;;;;;;;;;6098841;19;20410;-68
2023/01/12 07:55:15;;;;;;;22.65;4.88;;;;;;;;;;6099986;19;20021;-69
2023/01/12 07:57:20;;;;;;;20.17;3.72;;;;;;;;;;6102928;19;20011;-69
2023/01/12 07:59:26;;;;;;;19.70;4.47;;;;;;;;;;6101127;19;20018;-69
2023/01/12 08:01:34;;;;;;;19.90;3.85;;;;;;;;;;6103291;19;20007;-69
2023/01/12 08:03:40;;;;;;;20.23;4.88;;;;;;;;;;6103311;19;20456;-70
2023/01/12 08:05:45;;;;;;;15.80;3.72;;;;;;;;;;6103339;19;20617;-69
2023/01/12 08:07:49;;;;;;;20.85;3.35;;;;;;;;;;6102538;19;20022;-69
2023/01/12 08:09:55;;;;;;;22.10;4.45;;;;;;;;;;6104614;19;20010;-69
2023/01/12 08:11:59;;;;;;;19.10;4.63;;;;;;;;;;6103282;19;20484;-68
2023/01/12 08:14:04;;;;;;;19.73;4.90;;;;;;;;;;6102878;19;20022;-69
2023/01/12 08:16:13;;;;;;;20.88;4.18;;;;;;;;;;6103585;19;20011;-69
2023/01/12 08:18:24;;;;;;;21.00;3.72;;;;;;;;;;6103964;19;20487;-69
2023/01/12 08:20:32;;;;;;;22.77;3.95;;;;;;;;;;6107025;19;20584;-69
2023/01/12 08:22:39;;;;;;;17.60;4.35;;;;;;;;;;6109740;19;20021;-69
2023/01/12 08:24:46;;;;;;;22.75;4.50;;;;;;;;;;6101964;19;20451;-68
2023/01/12 08:26:52;;;;;;;24.85;4.35;;;;;;;;;;6109257;19;20026;-68
2023/01/12 08:29:01;;;;;;;21.98;6.28;;;;;;;;;;6107099;19;20043;-69
2023/01/12 08:31:08;;;;;;;22.88;4.88;;;;;;;;;;6108881;19;20018;-69
2023/01/12 08:33:13;;;;;;;17.98;4.13;;;;;;;;;;6110053;19;20372;-69
2023/01/12 08:35:22;;;;;;;19.83;4.95;;;;;;;;;;6108543;19;20022;-69
2023/01/12 08:37:30;;;;;;;13.40;3.53;;;;;;;;;;6107050;19;20022;-68
2023/01/12 08:39:35;;;;;;;21.92;4.78;;;;;;;;;;6108356;19;20011;-68
2023/01/12 08:41:43;;;;;;;26.00;4.80;;;;;;;;;;6106868;19;20007;-69
2023/01/12 08:44:03;;;;;;;16.60;4.18;;;;;;;;;;6107762;19;20014;-69
2023/01/12 08:46:09;;;;;;;21.45;4.78;;;;;;;;;;6108513;19;20013;-69
2023/01/12 08:48:14;;;;;;;22.63;4.50;;;;;;;;;;6106148;19;20007;-69
2023/01/12 08:50:21;;;;;;;23.65;4.97;;;;;;;;;;6108336;19;20011;-70
2023/01/12 08:52:28;;;;;;;25.25;5.97;;;;;;;;;;6105492;19;20107;-68
2023/01/12 08:54:32;;;;;;;23.75;5.10;;;;;;;;;;6108310;19;20046;-70
2023/01/12 08:56:37;;;;;;;29.42;6.30;;;;;;;;;;6106587;19;20034;-70
2023/01/12 08:58:42;;;;;;;21.48;4.85;;;;;;;;;;6106961;19;20085;-69
2023/01/12 09:00:46;;;;;;;20.20;4.97;;;;;;;;;;6107059;19;20042;-69
2023/01/12 09:02:51;;;;;;;37.05;6.25;;;;;;;;;;6104009;19;20102;-68
2023/01/12 09:04:56;;;;;;;27.63;5.53;;;;;;;;;;6107228;19;20367;-68
2023/01/12 09:07:03;;;;;;;27.02;5.85;;;;;;;;;;6108926;19;20010;-68
2023/01/12 09:09:10;;;;;;;17.65;4.47;;;;;;;;;;6110001;19;20010;-68
2023/01/12 09:11:16;;;;;;;15.98;4.03;;;;;;;;;;6107379;19;20018;-70
2023/01/12 09:13:21;;;;;;;25.63;4.82;;;;;;;;;;6107352;19;20031;-70
2023/01/12 09:15:26;;;;;;;28.52;4.75;;;;;;;;;;6107457;19;20034;-69
2023/01/12 09:17:31;;;;;;;18.85;4.20;;;;;;;;;;6108783;19;20011;-71
2023/01/12 09:19:36;;;;;;;26.40;6.00;;;;;;;;;;6107960;19;20050;-71
2023/01/12 09:21:42;;;;;;;18.73;5.00;;;;;;;;;;6103914;19;20427;-70
2023/01/12 09:23:51;;;;;;;27.80;4.95;;;;;;;;;;6108329;19;20321;-69
2023/01/12 09:25:56;;;;;;;29.42;5.07;;;;;;;;;;6105818;19;20011;-69
2023/01/12 09:28:00;;;;;;;31.85;5.63;;;;;;;;;;6108039;19;20010;-71
2023/01/12 09:30:06;;;;;;;29.50;6.03;;;;;;;;;;6105407;19;20098;-69
2023/01/12 09:32:11;;;;;;;20.20;4.75;;;;;;;;;;6105127;19;20089;-71
2023/01/12 09:34:16;;;;;;;21.00;4.28;;;;;;;;;;6107260;19;20007;-70
2023/01/12 09:36:23;;;;;;;22.90;5.07;;;;;;;;;;6106968;19;20043;-69
2023/01/12 09:38:30;;;;;;;16.13;4.30;;;;;;;;;;6107619;19;20011;-70
2023/01/12 09:40:38;;;;;;;22.73;4.55;;;;;;;;;;6103597;19;20014;-70
2023/01/12 09:47:19;;;;;;;20.23;4.30;;;;;;;;;;6106095;19;20010;-69
2023/01/12 09:49:26;;;;;;;14.20;3.50;;;;;;;;;;6104574;19;20017;-68
2023/01/12 09:51:35;;;;;;;21.85;4.85;;;;;;;;;;6104792;19;20010;-70
2023/01/12 09:53:40;;;;;;;30.17;5.22;;;;;;;;;;6101695;19;20038;-69
2023/01/12 09:55:53;;;;;;;26.60;4.47;;;;;;;;;;6107537;19;20025;-68
2023/01/12 09:58:09;;;;;;;15.73;4.50;;;;;;;;;;6105887;19;20376;-69
2023/01/12 10:00:16;;;;;;;30.63;4.95;;;;;;;;;;6086657;19;20420;-69
2023/01/12 10:02:20;;;;;;;16.75;4.05;;;;;;;;;;6103323;19;20097;-68
2023/01/12 10:04:25;;;;;;;17.00;3.80;;;;;;;;;;6106332;19;20015;-69
2023/01/12 10:06:34;;;;;;;26.60;6.03;;;;;;;;;;6107359;19;20546;-69
2023/01/12 10:08:47;;;;;;;19.65;4.43;;;;;;;;;;6102930;19;20028;-69
2023/01/12 10:11:03;;;;;;;17.98;3.78;;;;;;;;;;6104996;19;20021;-69
2023/01/12 10:13:12;;;;;;;24.63;5.50;;;;;;;;;;6104896;19;20590;-69
2023/01/12 10:15:28;;;;;;;31.23;5.85;;;;;;;;;;6106019;19;20848;-70
2023/01/12 10:17:43;;;;;;;27.50;5.43;;;;;;;;;;6104993;19;20367;-70
2023/01/12 10:20:03;;;;;;;16.80;4.13;;;;;;;;;;6105124;19;20083;-69
2023/01/12 10:22:15;;;;;;;16.88;3.83;;;;;;;;;;6102265;19;20016;-71
2023/01/12 10:24:22;;;;;;;21.13;4.25;;;;;;;;;;6106054;19;20006;-70
2023/01/12 10:26:36;;;;;;;19.98;4.65;;;;;;;;;;6103914;19;20536;-69
2023/01/12 10:28:45;;;;;;;24.17;4.80;;;;;;;;;;6100613;19;20007;-73
2023/01/12 10:30:50;;;;;;;20.63;4.78;;;;;;;;;;6106004;19;20491;-68
2023/01/12 10:32:55;;;;;;;21.63;3.95;;;;;;;;;;6104748;19;20376;-68
2023/01/12 10:34:59;;;;;;;17.50;4.03;;;;;;;;;;6104523;19;20026;-69
2023/01/12 10:37:09;;;;;;;21.85;4.53;;;;;;;;;;6103167;19;20017;-70
2023/01/12 10:39:31;;;;;;;29.25;4.50;;;;;;;;;;6104460;19;20018;-71
2023/01/12 10:41:39;;;;;;;20.42;4.50;;;;;;;;;;6102299;19;20078;-68
2023/01/12 10:43:44;;;;;;;20.40;4.25;;;;;;;;;;6106194;19;20018;-70
2023/01/12 10:46:09;;;;;;;23.70;4.25;;;;;;;;;;6103827;19;20010;-69
2023/01/12 10:48:20;;;;;;;19.63;4.03;;;;;;;;;;6105067;19;20010;-70
2023/01/12 10:50:30;;;;;;;28.77;4.50;;;;;;;;;;6104159;19;20010;-70
2023/01/12 10:52:41;;;;;;;19.13;4.45;;;;;;;;;;6101941;19;20010;-70
2023/01/12 10:54:50;;;;;;;23.05;4.30;;;;;;;;;;6098383;19;20022;-69
2023/01/12 10:57:04;;;;;;;22.58;4.10;;;;;;;;;;6106226;19;20637;-68
2023/01/12 10:59:20;;;;;;;18.45;3.72;;;;;;;;;;6101221;19;20482;-68
2023/01/12 11:01:25;;;;;;;12.77;4.03;;;;;;;;;;6102635;19;20010;-68
2023/01/12 11:03:33;;;;;;;22.30;4.22;;;;;;;;;;6106072;19;20019;-69
2023/01/12 11:05:39;;;;;;;25.30;4.40;;;;;;;;;;6103662;19;20014;-68
2023/01/12 11:07:50;;;;;;;30.90;5.40;;;;;;;;;;6103862;19;20085;-71
2023/01/12 11:09:56;;;;;;;16.95;3.95;;;;;;;;;;6104736;19;20279;-70
2023/01/12 11:12:04;;;;;;;23.40;4.57;;;;;;;;;;6103544;19;20011;-70
2023/01/12 11:14:22;;;;;;;20.08;4.28;;;;;;;;;;6103413;19;20050;-70
2023/01/12 11:16:32;;;;;;;17.73;4.07;;;;;;;;;;6104469;19;20003;-70
2023/01/12 11:18:40;;;;;;;14.60;4.30;;;;;;;;;;6101972;19;20034;-69
2023/01/12 11:20:50;;;;;;;21.35;4.60;;;;;;;;;;6103132;19;20011;-68
2023/01/12 11:22:58;;;;;;;17.92;4.03;;;;;;;;;;6102517;19;20019;-69
2023/01/12 11:25:05;;;;;;;13.48;3.75;;;;;;;;;;6102916;19;20052;-71
2023/01/12 11:27:20;;;;;;;22.90;4.55;;;;;;;;;;6102766;19;20117;-71
2023/01/12 11:29:34;;;;;;;20.60;4.10;;;;;;;;;;6104266;19;20522;-68
2023/01/12 11:31:43;;;;;;;22.20;4.68;;;;;;;;;;6102993;19;20490;-70
2023/01/12 11:33:51;;;;;;;22.70;4.70;;;;;;;;;;6104661;19;20273;-71
2023/01/12 11:36:00;;;;;;;19.73;4.97;;;;;;;;;;6102240;19;20010;-71
2023/01/12 11:38:11;;;;;;;24.70;5.05;;;;;;;;;;6105497;19;20042;-71
2023/01/12 11:40:23;;;;;;;22.42;4.72;;;;;;;;;;6104401;19;20306;-71
2023/01/12 11:44:53;;;;;;;23.70;4.80;;;;;;;;;;6101337;19;20682;-71
2023/01/12 11:47:07;;;;;;;33.35;5.90;;;;;;;;;;6105225;19;20380;-71
2023/01/12 11:49:16;;;;;;;23.08;5.45;;;;;;;;;;6102540;19;20368;-70
2023/01/12 11:51:21;;;;;;;28.60;5.22;;;;;;;;;;6103008;19;20015;-70
2023/01/12 11:53:28;;;;;;;24.02;5.03;;;;;;;;;;6104093;19;20042;-72
2023/01/12 11:55:47;;;;;;;19.88;4.72;;;;;;;;;;6107884;19;20010;-72
2023/01/12 11:58:05;;;;;;;20.25;4.60;;;;;;;;;;6109059;19;20578;-70
2023/01/12 12:00:39;;;;;;;23.75;4.68;;;;;;;;;;6106048;19;20015;-71
2023/01/12 12:02:50;;;;;;;22.25;4.97;;;;;;;;;;6106646;19;20025;-70
2023/01/12 12:05:04;;;;;;;21.55;4.70;;;;;;;;;;6107959;19;20015;-70
2023/01/12 12:07:20;;;;;;;16.73;3.70;;;;;;;;;;6107632;19;20010;-71
2023/01/12 12:09:40;;;;;;;20.95;4.22;;;;;;;;;;6109666;19;20011;-69
2023/01/12 12:11:51;;;;;;;14.32;3.38;;;;;;;;;;6109477;19;20038;-69
2023/01/12 12:14:07;;;;;;;19.42;3.38;;;;;;;;;;6110156;19;20024;-70
2023/01/12 12:16:25;;;;;;;17.75;3.95;;;;;;;;;;6109809;19;20027;-71
2023/01/12 12:18:40;;;;;;;13.93;3.10;;;;;;;;;;6109685;19;20335;-70
2023/01/12 12:20:49;;;;;;;9.30;2.85;;;;;;;;;;6103269;19;20351;-69
2023/01/12 12:23:04;;;;;;;12.80;2.90;;;;;;;;;;6109678;19;20014;-67
2023/01/12 12:25:30;;;;;;;9.40;3.00;;;;;;;;;;6108739;19;20006;-67
2023/01/12 12:27:49;;;;;;;7.97;2.42;;;;;;;;;;6109052;19;20042;-68
2023/01/12 12:30:25;;;;;;;7.35;2.30;;;;;;;;;;6110156;19;20052;-68
2023/01/12 12:32:33;;;;;;;13.35;2.90;;;;;;;;;;6110294;19;20007;-68
2023/01/12 12:35:07;;;;;;;6.38;2.35;;;;;;;;;;6106928;19;20010;-68
2023/01/12 12:37:18;;;;;;;10.07;1.95;;;;;;;;;;6109287;19;20078;-68
2023/01/12 12:39:37;;;;;;;6.97;2.35;;;;;;;;;;6108915;19;20018;-69
2023/01/12 12:46:42;;;;;;;6.63;2.33;;;;;;;;;;6109310;19;20030;-69
2023/01/12 12:48:53;;;;;;;5.80;2.20;;;;;;;;;;6105747;19;20344;-69
2023/01/12 12:51:05;;;;;;;4.28;2.58;;;;;;;;;;6107877;19;20022;-70
2023/01/12 12:53:22;;;;;;;5.78;2.33;;;;;;;;;;6106897;19;20592;-70
2023/01/12 12:55:36;;;;;;;4.78;2.00;;;;;;;;;;6106125;19;20013;-69
2023/01/12 12:58:04;;;;;;;7.22;2.10;;;;;;;;;;6107140;19;20010;-70
2023/01/12 13:00:41;;;;;;;4.57;2.05;;;;;;;;;;6108645;19;20130;-69
2023/01/12 13:02:58;;;;;;;5.20;1.65;;;;;;;;;;6105495;19;20025;-69
2023/01/12 13:05:05;;;;;;;9.27;2.20;;;;;;;;;;6104993;19;20025;-69
2023/01/12 13:07:15;;;;;;;8.85;2.30;;;;;;;;;;6105758;19;20034;-70
2023/01/12 13:09:36;;;;;;;3.50;1.60;;;;;;;;;;6106721;19;20010;-68
2023/01/12 13:11:52;;;;;;;3.05;1.77;;;;;;;;;;6109461;19;20046;-69
2023/01/12 13:14:01;;;;;;;5.28;1.70;;;;;;;;;;6109188;19;20003;-69